Terminal Aerodrome Forecast
Issued by NWS Pueblo, CO

Home | Current Version | Previous Version | Text Only | Print | Product List | Glossary On
Versions: 1 2 3 4 5 6 7 8 9 10 11 12 13 14 15 16 17 18 19 20 21 22 23 24 25 26 27 28 29 30 31 32 33 34 35 36 37 38 39 40 41 42 43 44 45 46
000
FTUS45 KPUB 302043 AAC
TAFPUB
TAF AMD
KPUB 302043Z 3021/3118 14006KT 5SM -RA SCT015 OVC025
      TEMPO 3021/3024 2SM +RA BKN015 OVC025
     FM310200 10006KT P6SM VCSH SCT015 BKN030
     FM310600 10005KT 3SM BR BKN015
     FM311100 15006KT 1SM BR BKN008
     FM311600 16006KT 5SM BR SCT008 BKN025=

USA.gov is the U.S. government's official web portal to all federal, state and local government web resources and services.